createdAt,value
2018-12-08T00:00:44.028Z,32.4
2018-12-08T00:01:34.667Z,32.4
2018-12-08T00:02:24.386Z,32.4
2018-12-08T00:03:14.166Z,32.4
2018-12-08T00:04:04.172Z,32.4
2018-12-08T00:04:54.808Z,32.4
2018-12-08T00:05:44.603Z,32.4
2018-12-08T00:06:35.217Z,32.4
2018-12-08T00:24:47.126Z,32.3
2018-12-08T00:25:37.172Z,32.3
2018-12-08T00:26:27.554Z,32.3
2018-12-08T00:27:17.264Z,32.3
2018-12-08T00:28:07.131Z,32.3
2018-12-08T00:28:56.847Z,32.3
2018-12-08T00:29:47.727Z,32.2
2018-12-08T00:30:37.614Z,32.2
2018-12-08T00:31:28.104Z,32.2
2018-12-08T00:32:17.722Z,32.2
2018-12-08T00:33:07.114Z,32.2
2018-12-08T00:33:57.853Z,32.2
2018-12-08T00:34:48.091Z,32.2
2018-12-08T00:35:37.573Z,32.2
2018-12-08T00:36:27.626Z,32.2
2018-12-08T00:37:17.774Z,32.2
2018-12-08T00:38:07.463Z,32.2
2018-12-08T00:38:58.103Z,32.2
2018-12-08T00:39:48.465Z,32.1
2018-12-08T00:40:38.447Z,32.1
2018-12-08T00:41:28.779Z,32.1
2018-12-08T00:42:17.743Z,32.1
2018-12-08T00:43:08.121Z,32.1
2018-12-08T00:43:58.413Z,32.1
2018-12-08T00:44:47.647Z,32.1
2018-12-08T00:45:38.306Z,32.1
2018-12-08T00:46:28.435Z,32.1
2018-12-08T00:47:18.468Z,32.1
2018-12-08T00:48:08.153Z,32.1
2018-12-08T00:48:59.049Z,32.1
2018-12-08T00:49:47.220Z,32.1
2018-12-08T00:50:38.890Z,32.1
2018-12-08T00:51:28.940Z,32.1
2018-12-08T00:52:18.425Z,32.1
2018-12-08T00:53:08.327Z,32.1
2018-12-08T00:53:58.840Z,32.1
2018-12-08T00:54:48.950Z,32.1
2018-12-08T00:55:39.570Z,32.1
2018-12-08T00:56:29.050Z,32.1
2018-12-08T00:57:19.042Z,32.1
2018-12-08T00:58:09.502Z,32
2018-12-08T00:58:59.165Z,32.1
2018-12-08T00:59:49.577Z,32.1
2018-12-08T01:00:39.797Z,32
2018-12-08T01:01:29.344Z,32
2018-12-08T01:02:20.372Z,32
2018-12-08T01:03:09.767Z,32
2018-12-08T01:03:58.980Z,32
2018-12-08T01:04:49.867Z,32
2018-12-08T01:05:39.337Z,32
2018-12-08T01:06:29.134Z,32
2018-12-08T01:07:20.034Z,31.9
2018-12-08T01:08:09.554Z,32
2018-12-08T01:08:59.574Z,32
2018-12-08T01:09:50.455Z,31.9
2018-12-08T01:10:41.064Z,31.9
2018-12-08T01:11:30.041Z,31.9
2018-12-08T01:12:20.570Z,31.9
2018-12-08T01:13:10.689Z,31.9
2018-12-08T01:13:59.938Z,31.9
2018-12-08T01:14:50.601Z,31.9
2018-12-08T01:15:40.586Z,31.9
2018-12-08T01:16:30.126Z,31.9
2018-12-08T01:17:20.834Z,31.9
2018-12-08T01:18:09.954Z,31.9
2018-12-08T01:19:00.793Z,31.9
2018-12-08T01:19:51.401Z,31.9
2018-12-08T01:20:41.181Z,31.9
2018-12-08T01:21:31.036Z,31.9
2018-12-08T01:22:21.428Z,31.9
2018-12-08T01:23:11.396Z,31.9
2018-12-08T01:24:00.813Z,31.9
2018-12-08T01:24:50.491Z,31.9
2018-12-08T01:25:41.420Z,31.9
2018-12-08T01:26:31.893Z,31.9
2018-12-08T01:27:20.840Z,31.9
2018-12-08T01:28:11.498Z,31.9
2018-12-08T01:29:00.966Z,31.8
2018-12-08T01:29:51.015Z,31.8
2018-12-08T01:30:41.723Z,31.8
2018-12-08T01:31:30.712Z,31.8
2018-12-08T01:32:20.925Z,31.8
2018-12-08T01:33:12.606Z,31.8
2018-12-08T01:34:01.587Z,31.8
2018-12-08T01:34:51.475Z,31.8
2018-12-08T01:35:41.969Z,31.8
2018-12-08T01:36:31.531Z,31.8
2018-12-08T01:37:20.761Z,31.8
2018-12-08T01:38:11.657Z,31.8
2018-12-08T01:39:02.174Z,31.8
2018-12-08T01:39:51.676Z,31.8
2018-12-08T01:40:42.008Z,31.8
2018-12-08T01:41:31.557Z,31.8
2018-12-08T01:42:21.996Z,31.8
2018-12-08T01:43:12.193Z,31.8
2018-12-08T01:44:02.805Z,31.8
2018-12-08T01:44:52.856Z,31.8
2018-12-08T01:45:41.833Z,31.8
2018-12-08T01:46:32.680Z,31.8
2018-12-08T01:47:22.203Z,31.8
2018-12-08T01:48:11.790Z,31.8
2018-12-08T01:49:02.403Z,31.7
2018-12-08T01:49:52.423Z,31.8
2018-12-08T01:50:42.695Z,31.7
2018-12-08T01:51:32.817Z,31.7
2018-12-08T01:52:22.809Z,31.7
2018-12-08T01:53:12.880Z,31.7
2018-12-08T01:54:03.220Z,31.7
2018-12-08T01:54:53.644Z,31.7
2018-12-08T01:55:42.277Z,31.7
2018-12-08T01:56:32.424Z,31.7
2018-12-08T01:57:23.440Z,31.7
2018-12-08T01:58:13.227Z,31.7
2018-12-08T01:59:02.727Z,31.7
2018-12-08T01:59:53.582Z,31.7
2018-12-08T02:00:43.388Z,31.6
2018-12-08T02:01:33.299Z,31.6
2018-12-08T02:02:24.056Z,31.6
2018-12-08T02:03:14.114Z,31.6
2018-12-08T02:04:03.181Z,31.6
2018-12-08T02:04:53.959Z,31.6
2018-12-08T02:05:43.192Z,31.6
2018-12-08T02:06:34.639Z,31.6
2018-12-08T02:07:23.831Z,31.6
2018-12-08T02:08:13.161Z,31.6
2018-12-08T02:09:03.505Z,31.6
2018-12-08T02:09:53.924Z,31.6
2018-12-08T02:10:43.586Z,31.6
2018-12-08T02:11:34.141Z,31.6
2018-12-08T02:12:24.431Z,31.6
2018-12-08T02:13:13.701Z,31.6
2018-12-08T02:14:04.351Z,31.6
2018-12-08T02:14:54.171Z,31.6
2018-12-08T02:15:43.393Z,31.6
2018-12-08T02:16:34.270Z,31.6
2018-12-08T02:17:24.580Z,31.6
2018-12-08T02:18:13.558Z,31.6
2018-12-08T02:19:04.463Z,31.6
2018-12-08T02:19:53.223Z,31.5
2018-12-08T02:20:44.662Z,31.5
2018-12-08T02:21:33.790Z,31.5
2018-12-08T02:22:24.502Z,31.5
2018-12-08T02:23:14.452Z,31.5
2018-12-08T02:24:04.286Z,31.5
2018-12-08T02:24:54.969Z,31.5
2018-12-08T02:25:44.632Z,31.5
2018-12-08T02:26:34.485Z,31.5
2018-12-08T02:27:24.456Z,31.5
2018-12-08T02:28:14.814Z,31.5
2018-12-08T02:29:04.377Z,31.5
2018-12-08T02:29:54.921Z,31.5
2018-12-08T02:30:44.990Z,31.4
2018-12-08T02:31:35.336Z,31.4
2018-12-08T02:32:25.460Z,31.4
2018-12-08T02:33:18.784Z,31.4
2018-12-08T02:34:05.798Z,31.4
2018-12-08T02:34:55.057Z,31.4
2018-12-08T02:35:45.087Z,31.4
2018-12-08T02:36:35.848Z,31.4
2018-12-08T02:37:25.556Z,31.4
2018-12-08T02:38:15.324Z,31.4
2018-12-08T02:39:05.652Z,31.4
2018-12-08T02:39:55.638Z,31.4
2018-12-08T02:40:46.701Z,31.4
2018-12-08T02:41:36.027Z,31.4
2018-12-08T02:42:25.798Z,31.4
2018-12-08T02:43:16.664Z,31.4
2018-12-08T02:44:06.996Z,31.4
2018-12-08T02:44:56.193Z,31.4
2018-12-08T02:45:46.762Z,31.4
2018-12-08T02:46:35.612Z,31.4
2018-12-08T02:47:26.637Z,31.4
2018-12-08T02:48:16.117Z,31.4
2018-12-08T02:49:06.862Z,31.4
2018-12-08T02:49:56.477Z,31.4
2018-12-08T02:50:46.838Z,31.4
2018-12-08T02:51:37.420Z,31.4
2018-12-08T02:52:27.268Z,31.3
2018-12-08T02:53:16.809Z,31.3
2018-12-08T02:54:07.317Z,31.3
2018-12-08T02:54:57.201Z,31.3
2018-12-08T02:55:47.189Z,31.3
2018-12-08T02:56:37.436Z,31.3
2018-12-08T02:57:27.309Z,31.3
2018-12-08T02:58:17.455Z,31.3
2018-12-08T02:59:06.699Z,31.3
2018-12-08T02:59:57.854Z,31.3
2018-12-08T03:00:47.233Z,31.3
2018-12-08T03:01:37.647Z,31.3
2018-12-08T03:02:27.089Z,31.3
2018-12-08T03:03:17.673Z,31.3
2018-12-08T03:04:08.564Z,31.3
2018-12-08T03:04:57.866Z,31.3
2018-12-08T03:05:47.698Z,31.3
2018-12-08T03:06:37.180Z,31.3
2018-12-08T03:07:27.235Z,31.3
2018-12-08T03:08:17.413Z,31.3
2018-12-08T03:09:08.837Z,31.3
2018-12-08T03:09:57.892Z,31.3
2018-12-08T03:10:47.670Z,31.3
2018-12-08T03:11:38.267Z,31.3
2018-12-08T03:12:27.915Z,31.3
2018-12-08T03:13:18.987Z,31.3
2018-12-08T03:14:07.943Z,31.3
2018-12-08T03:14:58.522Z,31.2
2018-12-08T03:15:47.817Z,31.2
2018-12-08T03:16:38.445Z,31.2
2018-12-08T03:17:29.211Z,31.2
2018-12-08T03:18:19.009Z,31.2
2018-12-08T03:19:09.266Z,31.2
2018-12-08T03:19:59.374Z,31.2
2018-12-08T03:20:48.610Z,31.2
2018-12-08T03:21:39.237Z,31.2
2018-12-08T03:22:29.542Z,31.2
2018-12-08T03:23:19.489Z,31.2
2018-12-08T03:24:09.394Z,31.1
2018-12-08T03:24:59.167Z,31.1
2018-12-08T03:25:49.814Z,31.1
2018-12-08T03:26:39.813Z,31.1
2018-12-08T03:27:30.179Z,31.1
2018-12-08T03:28:19.686Z,31.1
2018-12-08T03:29:09.226Z,31.1
2018-12-08T03:29:59.516Z,31.1
2018-12-08T03:30:51.739Z,31.1
2018-12-08T03:31:40.030Z,31.1
2018-12-08T03:32:29.649Z,31.1
2018-12-08T03:33:19.928Z,31.1
2018-12-08T03:34:10.503Z,31.1
2018-12-08T03:34:59.306Z,31.1
2018-12-08T03:35:49.953Z,31.1
2018-12-08T03:36:39.687Z,31.1
2018-12-08T03:37:29.786Z,31.1
2018-12-08T03:38:20.129Z,31.1
2018-12-08T03:39:10.723Z,31.1
2018-12-08T03:40:00.498Z,31.1
2018-12-08T03:40:51.148Z,31.1
2018-12-08T03:41:40.079Z,31.1
2018-12-08T03:42:29.565Z,31.1
2018-12-08T03:43:19.616Z,31.1
2018-12-08T03:44:10.607Z,31.1
2018-12-08T03:45:00.662Z,31.1
2018-12-08T03:45:50.888Z,31
2018-12-08T03:46:40.414Z,31.1
2018-12-08T03:47:30.204Z,31
2018-12-08T03:48:20.528Z,31
2018-12-08T03:49:11.169Z,31
2018-12-08T03:50:00.654Z,31
2018-12-08T03:50:51.396Z,31
2018-12-08T03:51:41.279Z,31
2018-12-08T03:52:31.447Z,31
2018-12-08T03:53:21.448Z,31
2018-12-08T03:54:11.557Z,31
2018-12-08T03:55:01.045Z,31
2018-12-08T03:55:50.850Z,31
2018-12-08T03:56:40.654Z,31
2018-12-08T03:57:31.639Z,30.9
2018-12-08T03:58:21.004Z,31
2018-12-08T03:59:11.844Z,30.9
2018-12-08T04:00:01.925Z,30.9
2018-12-08T04:00:51.233Z,30.9
2018-12-08T04:01:42.268Z,30.9
2018-12-08T04:02:31.758Z,30.9
2018-12-08T04:03:20.971Z,30.9
2018-12-08T04:04:12.174Z,30.9
2018-12-08T04:05:01.683Z,30.9
2018-12-08T04:05:51.778Z,30.9
2018-12-08T04:06:41.792Z,30.9
2018-12-08T04:07:32.446Z,30.9
2018-12-08T04:08:22.164Z,30.9
2018-12-08T04:09:12.764Z,30.9
2018-12-08T04:10:02.099Z,30.9
2018-12-08T04:10:52.855Z,30.9
2018-12-08T04:11:42.691Z,30.9
2018-12-08T04:12:32.164Z,30.9
2018-12-08T04:13:22.252Z,30.9
2018-12-08T04:14:12.046Z,30.9
2018-12-08T04:15:02.619Z,30.9
2018-12-08T04:15:52.649Z,30.9
2018-12-08T04:16:43.262Z,30.9
2018-12-08T04:17:33.338Z,30.9
2018-12-08T04:18:23.400Z,30.8
2018-12-08T04:19:12.580Z,30.9
2018-12-08T04:20:03.095Z,30.8
2018-12-08T04:20:53.283Z,30.8
2018-12-08T04:21:43.068Z,30.8
2018-12-08T04:22:33.423Z,30.8
2018-12-08T04:23:23.310Z,30.8
2018-12-08T04:24:13.804Z,30.8
2018-12-08T04:25:03.320Z,30.8
2018-12-08T04:25:53.802Z,30.8
2018-12-08T04:26:43.150Z,30.8
2018-12-08T04:27:32.351Z,30.8
2018-12-08T04:28:23.619Z,30.8
2018-12-08T04:29:13.881Z,30.8
2018-12-08T04:30:03.725Z,30.8
2018-12-08T04:30:54.659Z,30.8
2018-12-08T04:31:44.261Z,30.8
2018-12-08T04:32:33.579Z,30.8
2018-12-08T04:33:23.890Z,30.8
2018-12-08T04:34:13.696Z,30.8
2018-12-08T04:35:03.749Z,30.8
2018-12-08T04:35:55.689Z,30.8
2018-12-08T04:36:43.514Z,30.8
2018-12-08T04:54:03.200Z,30.6
2018-12-08T04:54:53.039Z,30.6
2018-12-08T04:55:42.532Z,30.7
2018-12-08T04:56:32.874Z,30.6
2018-12-08T04:57:22.344Z,30.6
2018-12-08T04:58:12.399Z,30.6
2018-12-08T04:59:02.740Z,30.6
2018-12-08T04:59:53.092Z,30.6
2018-12-08T05:00:43.134Z,30.6
2018-12-08T05:01:32.937Z,30.6
2018-12-08T05:02:23.632Z,30.6
2018-12-08T05:03:12.462Z,30.6
2018-12-08T05:04:02.984Z,30.6
2018-12-08T05:04:53.441Z,30.6
2018-12-08T05:05:43.161Z,30.6
2018-12-08T05:06:33.238Z,30.6
2018-12-08T05:07:24.094Z,30.6
2018-12-08T05:08:13.601Z,30.6
2018-12-08T05:09:03.389Z,30.6
2018-12-08T05:09:54.101Z,30.6
2018-12-08T05:10:43.516Z,30.6
2018-12-08T05:11:33.666Z,30.6
2018-12-08T05:12:24.151Z,30.6
2018-12-08T05:13:13.391Z,30.6
2018-12-08T05:14:03.453Z,30.6
2018-12-08T05:14:54.371Z,30.6
2018-12-08T05:15:43.653Z,30.6
2018-12-08T05:16:34.466Z,30.6
2018-12-08T05:17:23.118Z,30.5
2018-12-08T05:18:14.016Z,30.5
2018-12-08T05:19:04.368Z,30.5
2018-12-08T05:19:54.419Z,30.5
2018-12-08T05:20:44.771Z,30.5
2018-12-08T05:21:34.243Z,30.5
2018-12-08T05:22:24.870Z,30.5
2018-12-08T05:23:14.185Z,30.5
2018-12-08T05:24:03.855Z,30.5
2018-12-08T05:24:54.048Z,30.5
2018-12-08T05:25:45.290Z,30.4
2018-12-08T05:26:35.273Z,30.4
2018-12-08T05:27:24.681Z,30.5
2018-12-08T05:28:14.155Z,30.4
2018-12-08T05:29:04.775Z,30.4
2018-12-08T05:29:54.627Z,30.4
2018-12-08T05:30:45.437Z,30.4
2018-12-08T05:31:35.225Z,30.4
2018-12-08T05:32:24.998Z,30.4
2018-12-08T05:33:15.038Z,30.4
2018-12-08T05:34:05.126Z,30.4
2018-12-08T05:34:55.220Z,30.4
2018-12-08T05:35:44.665Z,30.4
2018-12-08T05:36:36.173Z,30.4
2018-12-08T05:37:25.615Z,30.4
2018-12-08T05:38:15.364Z,30.4
2018-12-08T05:39:05.442Z,30.4
2018-12-08T05:39:55.882Z,30.4
2018-12-08T05:40:46.150Z,30.4
2018-12-08T05:41:35.598Z,30.4
2018-12-08T05:42:26.032Z,30.4
2018-12-08T05:43:15.739Z,30.4
2018-12-08T05:44:06.072Z,30.4
2018-12-08T05:44:56.115Z,30.4
2018-12-08T05:45:46.140Z,30.4
2018-12-08T05:46:36.559Z,30.4
2018-12-08T05:47:26.282Z,30.4
2018-12-08T05:48:16.072Z,30.4
2018-12-08T05:49:06.228Z,30.4
2018-12-08T05:49:56.443Z,30.4
2018-12-08T05:50:46.309Z,30.4
2018-12-08T05:51:36.726Z,30.4
2018-12-08T05:52:26.671Z,30.3
2018-12-08T05:53:16.937Z,30.3
2018-12-08T05:54:06.454Z,30.3
2018-12-08T05:54:56.539Z,30.3
2018-12-08T05:55:46.849Z,30.3
2018-12-08T05:56:36.721Z,30.3
2018-12-08T05:57:26.792Z,30.3
2018-12-08T05:58:16.723Z,30.3
2018-12-08T05:59:06.274Z,30.3
2018-12-08T05:59:56.864Z,30.3
2018-12-08T06:00:46.361Z,30.3
2018-12-08T06:01:37.845Z,30.3
2018-12-08T06:02:27.311Z,30.3
2018-12-08T06:03:17.627Z,30.3
2018-12-08T06:04:06.896Z,30.3
2018-12-08T06:04:57.222Z,30.3
2018-12-08T06:05:46.981Z,30.3
2018-12-08T06:06:37.567Z,30.3
2018-12-08T06:07:27.093Z,30.3
2018-12-08T06:08:17.174Z,30.3
2018-12-08T06:09:07.498Z,30.2
2018-12-08T06:09:57.532Z,30.1
2018-12-08T06:10:47.601Z,30.1
2018-12-08T06:11:38.572Z,30.1
2018-12-08T06:12:27.724Z,30.1
2018-12-08T06:13:17.766Z,30
2018-12-08T06:14:08.096Z,30
2018-12-08T06:14:58.461Z,30
2018-12-08T06:15:47.940Z,30
2018-12-08T06:16:38.040Z,30
2018-12-08T06:17:28.063Z,30
2018-12-08T06:18:18.666Z,29.9
2018-12-08T06:19:07.873Z,29.9
2018-12-08T06:19:57.770Z,29.9
2018-12-08T06:20:48.290Z,29.9
2018-12-08T06:21:38.620Z,29.9
2018-12-08T06:22:28.726Z,29.9
2018-12-08T06:23:19.000Z,30
2018-12-08T06:24:08.001Z,30
2018-12-08T06:24:58.853Z,30
2018-12-08T06:25:48.888Z,30
2018-12-08T06:26:38.778Z,30
2018-12-08T06:27:29.543Z,30.1
2018-12-08T06:28:18.804Z,30.1
2018-12-08T06:29:08.298Z,30.1
2018-12-08T06:29:59.152Z,30.1
2018-12-08T06:30:48.979Z,30.1
2018-12-08T06:31:38.828Z,30.1
2018-12-08T06:32:29.599Z,30.1
2018-12-08T06:33:18.861Z,30.1
2018-12-08T06:34:09.179Z,30.1
2018-12-08T06:34:59.474Z,30.1
2018-12-08T06:35:49.574Z,30.1
2018-12-08T06:36:40.003Z,30.1
2018-12-08T06:37:28.869Z,30
2018-12-08T06:38:19.517Z,30
2018-12-08T06:39:10.300Z,29.9
2018-12-08T06:40:00.366Z,29.9
2018-12-08T06:40:49.899Z,29.9
2018-12-08T06:41:38.594Z,29.9
2018-12-08T06:42:29.997Z,29.9
2018-12-08T06:43:19.851Z,29.9
2018-12-08T06:44:10.151Z,29.9
2018-12-08T06:45:00.729Z,29.9
2018-12-08T06:45:50.019Z,29.9
2018-12-08T06:46:40.366Z,29.9
2018-12-08T06:47:30.089Z,29.8
2018-12-08T06:48:20.147Z,29.8
2018-12-08T06:49:09.946Z,29.8
2018-12-08T06:49:59.979Z,29.8
2018-12-08T06:50:49.851Z,29.8
2018-12-08T06:51:40.945Z,29.8
2018-12-08T06:52:29.872Z,29.8
2018-12-08T06:53:20.883Z,29.8
2018-12-08T06:54:10.551Z,29.8
2018-12-08T06:55:01.423Z,29.8
2018-12-08T06:55:50.114Z,29.8
2018-12-08T06:56:40.488Z,29.8
2018-12-08T06:57:30.596Z,29.8
2018-12-08T06:58:20.886Z,29.7
2018-12-08T06:59:10.702Z,29.7
2018-12-08T07:00:00.734Z,29.7
2018-12-08T07:00:49.955Z,29.7
2018-12-08T07:01:41.185Z,29.7
2018-12-08T07:02:30.361Z,29.7
2018-12-08T07:03:21.425Z,29.7
2018-12-08T07:04:11.038Z,29.6
2018-12-08T07:05:01.355Z,29.6
2018-12-08T07:05:51.110Z,29.6
2018-12-08T07:06:41.505Z,29.6
2018-12-08T07:07:31.453Z,29.6
2018-12-08T07:08:21.900Z,29.6
2018-12-08T07:09:12.098Z,29.6
2018-12-08T07:10:01.623Z,29.6
2018-12-08T07:10:52.295Z,29.6
2018-12-08T07:11:41.724Z,29.6
2018-12-08T07:12:34.307Z,29.6
2018-12-08T07:13:21.534Z,29.6
2018-12-08T07:14:12.162Z,29.6
2018-12-08T07:15:02.245Z,29.6
2018-12-08T07:15:52.887Z,29.5
2018-12-08T07:16:42.072Z,29.6
2018-12-08T07:17:31.380Z,29.5
2018-12-08T07:18:22.714Z,29.5
2018-12-08T07:19:12.017Z,29.5
2018-12-08T07:20:02.435Z,29.5
2018-12-08T07:20:52.315Z,29.5
2018-12-08T07:21:42.714Z,29.5
2018-12-08T07:22:32.729Z,29.4
2018-12-08T07:23:23.364Z,29.4
2018-12-08T07:24:12.282Z,29.4
2018-12-08T07:25:02.360Z,29.4
2018-12-08T07:25:53.324Z,29.4
2018-12-08T07:26:42.479Z,29.4
2018-12-08T07:27:32.534Z,29.4
2018-12-08T07:28:25.404Z,29.4
2018-12-08T07:29:13.456Z,29.4
2018-12-08T07:30:02.811Z,29.4
2018-12-08T07:30:53.554Z,29.4
2018-12-08T07:31:43.694Z,29.4
2018-12-08T07:32:41.195Z,29.4
2018-12-08T07:33:23.203Z,29.3
2018-12-08T07:34:13.003Z,29.3
2018-12-08T07:35:03.084Z,29.3
2018-12-08T07:35:52.818Z,29.3
2018-12-08T07:36:43.756Z,29.3
2018-12-08T07:37:33.521Z,29.3
2018-12-08T07:38:24.358Z,29.3
2018-12-08T07:39:13.278Z,29.3
2018-12-08T07:40:03.411Z,29.3
2018-12-08T07:40:53.740Z,29.3
2018-12-08T07:41:44.091Z,29.3
2018-12-08T07:42:33.274Z,29.3
2018-12-08T07:43:23.633Z,29.3
2018-12-08T07:44:14.496Z,29.2
2018-12-08T07:45:04.002Z,29.2
2018-12-08T07:45:54.350Z,29.2
2018-12-08T07:46:44.108Z,29.2
2018-12-08T07:47:34.540Z,29.2
2018-12-08T07:48:23.943Z,29.2
2018-12-08T07:49:14.376Z,29.2
2018-12-08T07:50:03.865Z,29.2
2018-12-08T07:50:53.912Z,29.2
2018-12-08T07:51:43.962Z,29.2
2018-12-08T07:52:33.782Z,29.1
2018-12-08T07:53:24.624Z,29.1
2018-12-08T07:54:13.892Z,29.2
2018-12-08T07:55:04.492Z,29.1
2018-12-08T07:55:53.974Z,29.1
2018-12-08T07:56:45.023Z,29.1
2018-12-08T07:57:34.302Z,29.1
2018-12-08T07:58:24.378Z,29.1
2018-12-08T07:59:14.689Z,29.1
2018-12-08T08:00:07.022Z,29.1
2018-12-08T08:00:55.184Z,29.1
2018-12-08T08:01:45.974Z,29.1
2018-12-08T08:02:35.311Z,29.1
2018-12-08T08:03:24.146Z,29.1
2018-12-08T08:04:14.729Z,29.1
2018-12-08T08:05:05.124Z,29.1
2018-12-08T08:05:56.048Z,29.1
2018-12-08T08:06:46.031Z,29.1
2018-12-08T08:07:35.801Z,29.1
2018-12-08T08:08:25.589Z,29.1
2018-12-08T08:09:15.985Z,29
2018-12-08T08:10:04.766Z,29.1
2018-12-08T08:10:56.359Z,29
2018-12-08T08:11:46.126Z,29
2018-12-08T08:12:36.167Z,29
2018-12-08T08:13:25.935Z,29
2018-12-08T08:14:16.316Z,29
2018-12-08T08:15:06.435Z,29
2018-12-08T08:15:55.920Z,28.9
2018-12-08T08:16:46.725Z,29
2018-12-08T08:17:36.486Z,29
2018-12-08T08:18:26.538Z,29
2018-12-08T08:19:16.870Z,28.9
2018-12-08T08:20:06.120Z,28.9
2018-12-08T08:20:56.833Z,28.9
2018-12-08T08:21:46.781Z,28.9
2018-12-08T08:22:37.402Z,28.9
2018-12-08T08:23:27.202Z,28.9
2018-12-08T08:24:16.399Z,28.9
2018-12-08T08:25:06.722Z,28.9
2018-12-08T08:25:56.598Z,28.9
2018-12-08T08:26:46.942Z,28.9
2018-12-08T08:27:37.083Z,28.9
2018-12-08T08:28:27.107Z,28.9
2018-12-08T08:29:17.287Z,28.9
2018-12-08T08:30:07.342Z,28.9
2018-12-08T08:30:57.109Z,28.9
2018-12-08T08:31:49.189Z,28.9
2018-12-08T08:32:36.679Z,28.9
2018-12-08T08:33:27.554Z,28.9
2018-12-08T08:34:17.104Z,28.9
2018-12-08T08:35:07.417Z,28.8
2018-12-08T08:35:57.809Z,28.8
2018-12-08T08:36:47.516Z,28.8
2018-12-08T08:37:37.931Z,28.8
2018-12-08T08:38:27.928Z,28.8
2018-12-08T08:39:17.204Z,28.8
2018-12-08T08:40:08.136Z,28.8
2018-12-08T08:40:57.798Z,28.8
2018-12-08T08:41:47.576Z,28.8
2018-12-08T08:42:37.621Z,28.8
2018-12-08T08:43:27.961Z,28.8
2018-12-08T08:44:18.581Z,28.8
2018-12-08T08:45:07.264Z,28.8
2018-12-08T08:45:58.226Z,28.8
2018-12-08T08:46:48.243Z,28.8
2018-12-08T08:47:38.261Z,28.8
2018-12-08T08:48:28.583Z,28.8
2018-12-08T08:49:18.363Z,28.8
2018-12-08T08:50:10.775Z,28.8
2018-12-08T08:50:58.477Z,28.8
2018-12-08T08:51:48.563Z,28.8
2018-12-08T08:52:38.329Z,28.8
2018-12-08T09:08:25.857Z,28.6
2018-12-08T09:09:15.945Z,28.6
2018-12-08T09:10:05.585Z,28.6
2018-12-08T09:10:55.482Z,28.6
2018-12-08T09:11:45.834Z,28.6
2018-12-08T09:12:34.762Z,28.6
2018-12-08T09:13:26.459Z,28.6
2018-12-08T09:14:19.602Z,28.6
2018-12-08T09:15:05.507Z,28.6
2018-12-08T09:15:55.877Z,28.6
2018-12-08T09:16:46.556Z,28.6
2018-12-08T09:17:36.061Z,28.6
2018-12-08T09:18:26.707Z,28.6
2018-12-08T09:19:16.042Z,28.6
2018-12-08T09:20:05.864Z,28.6
2018-12-08T09:20:56.179Z,28.6
2018-12-08T09:21:46.224Z,28.6
2018-12-08T09:22:35.784Z,28.5
2018-12-08T09:23:26.704Z,28.6
2018-12-08T09:24:16.679Z,28.5
2018-12-08T09:25:06.459Z,28.5
2018-12-08T09:25:57.044Z,28.5
2018-12-08T09:26:46.566Z,28.5
2018-12-08T09:27:36.606Z,28.5
2018-12-08T09:28:27.511Z,28.5
2018-12-08T09:29:16.738Z,28.5
2018-12-08T09:30:06.642Z,28.5
2018-12-08T09:30:55.888Z,28.5
2018-12-08T09:31:46.511Z,28.5
2018-12-08T09:32:36.753Z,28.4
2018-12-08T09:33:27.246Z,28.4
2018-12-08T09:34:16.894Z,28.4
2018-12-08T09:35:07.216Z,28.4
2018-12-08T09:35:57.465Z,28.4
2018-12-08T09:36:47.526Z,28.4
2018-12-08T09:37:36.893Z,28.4
2018-12-08T09:38:27.623Z,28.4
2018-12-08T09:39:17.663Z,28.4
2018-12-08T09:40:07.221Z,28.4
2018-12-08T09:40:57.538Z,28.4
2018-12-08T09:41:47.857Z,28.4
2018-12-08T09:42:37.458Z,28.4
2018-12-08T09:43:27.984Z,28.4
2018-12-08T09:44:17.503Z,28.4
2018-12-08T09:45:07.837Z,28.4
2018-12-08T09:45:58.425Z,28.4
2018-12-08T09:46:47.650Z,28.4
2018-12-08T09:47:38.015Z,28.4
2018-12-08T09:48:28.050Z,28.4
2018-12-08T09:49:18.454Z,28.4
2018-12-08T09:50:08.789Z,28.3
2018-12-08T09:50:58.755Z,28.4
2018-12-08T09:51:47.185Z,28.3
2018-12-08T09:52:37.615Z,28.4
2018-12-08T09:53:28.667Z,28.3
2018-12-08T09:54:18.990Z,28.3
2018-12-08T09:55:08.890Z,28.3
2018-12-08T09:55:59.435Z,28.3
2018-12-08T09:56:48.602Z,28.3
2018-12-08T09:57:38.669Z,28.3
2018-12-08T09:58:28.610Z,28.3
2018-12-08T09:59:19.595Z,28.3
2018-12-08T10:00:09.137Z,28.3
2018-12-08T10:00:59.535Z,28.3
2018-12-08T10:01:49.517Z,28.3
2018-12-08T10:02:39.080Z,28.3
2018-12-08T10:03:28.583Z,28.3
2018-12-08T10:04:18.132Z,28.3
2018-12-08T10:05:08.600Z,28.3
2018-12-08T10:05:59.662Z,28.3
2018-12-08T10:06:48.925Z,28.3
2018-12-08T10:07:39.921Z,28.3
2018-12-08T10:08:29.410Z,28.3
2018-12-08T10:09:20.269Z,28.3
2018-12-08T10:10:09.494Z,28.3
2018-12-08T10:10:59.571Z,28.3
2018-12-08T10:11:49.627Z,28.2
2018-12-08T10:12:39.704Z,28.2
2018-12-08T10:13:29.301Z,28.2
2018-12-08T10:14:20.457Z,28.2
2018-12-08T10:15:09.591Z,28.2
2018-12-08T10:16:00.254Z,28.2
2018-12-08T10:16:50.523Z,28.2
2018-12-08T10:17:40.571Z,28.2
2018-12-08T10:18:30.377Z,28.2
2018-12-08T10:19:20.229Z,28.2
2018-12-08T10:20:10.216Z,28.2
2018-12-08T10:21:00.343Z,28.2
2018-12-08T10:21:50.551Z,28.1
2018-12-08T10:22:40.666Z,28.2
2018-12-08T10:23:30.217Z,28.2
2018-12-08T10:24:20.528Z,28.1
2018-12-08T10:25:10.773Z,28.1
2018-12-08T10:26:00.869Z,28.1
2018-12-08T10:26:51.025Z,28.1
2018-12-08T10:27:42.569Z,28.1
2018-12-08T10:28:31.328Z,28.1
2018-12-08T10:29:20.268Z,28.1
2018-12-08T10:30:11.096Z,28.1
2018-12-08T10:31:00.090Z,28.1
2018-12-08T10:31:50.985Z,28.1
2018-12-08T10:32:41.315Z,28.1
2018-12-08T10:33:33.041Z,28.1
2018-12-08T10:34:21.798Z,28.1
2018-12-08T10:35:11.494Z,28.1
2018-12-08T10:36:01.541Z,28.1
2018-12-08T10:36:51.606Z,28.1
2018-12-08T10:37:41.943Z,28
2018-12-08T10:38:31.715Z,28
2018-12-08T10:39:21.549Z,28
2018-12-08T10:40:11.661Z,28
2018-12-08T10:41:01.877Z,28
2018-12-08T10:41:52.237Z,27.9
2018-12-08T10:42:41.717Z,27.9
2018-12-08T10:43:31.490Z,27.9
2018-12-08T10:44:21.561Z,27.9
2018-12-08T10:45:11.342Z,27.9
2018-12-08T10:46:01.951Z,27.9
2018-12-08T10:46:52.362Z,27.9
2018-12-08T10:51:02.829Z,27.8
2018-12-08T10:51:52.629Z,27.8
2018-12-08T10:52:42.719Z,27.7
2018-12-08T10:53:33.009Z,27.7
2018-12-08T10:54:21.927Z,27.7
2018-12-08T10:55:12.899Z,27.7
2018-12-08T10:56:02.689Z,27.7
2018-12-08T10:56:52.411Z,27.6
2018-12-08T10:57:43.301Z,27.6
2018-12-08T10:58:33.076Z,27.6
2018-12-08T10:59:23.403Z,27.6
2018-12-08T11:00:13.207Z,27.6
2018-12-08T11:01:04.024Z,27.6
2018-12-08T11:01:53.408Z,27.6
2018-12-08T11:02:43.639Z,27.6
2018-12-08T11:03:33.121Z,27.6
2018-12-08T11:04:23.988Z,27.6
2018-12-08T11:05:12.745Z,27.5
2018-12-08T11:06:03.815Z,27.5
2018-12-08T11:06:53.383Z,27.5
2018-12-08T11:07:43.415Z,27.5
2018-12-08T11:08:33.543Z,27.5
2018-12-08T11:09:23.584Z,27.5
2018-12-08T11:10:13.170Z,27.5
2018-12-08T11:11:03.795Z,27.4
2018-12-08T11:11:53.228Z,27.4
2018-12-08T11:12:43.853Z,27.4
2018-12-08T11:13:32.232Z,27.4
2018-12-08T11:14:23.398Z,27.4
2018-12-08T11:15:13.729Z,27.4
2018-12-08T11:16:03.807Z,27.4
2018-12-08T11:16:54.152Z,27.4
2018-12-08T11:17:44.287Z,27.4
2018-12-08T11:18:34.315Z,27.4
2018-12-08T11:19:23.457Z,27.4
2018-12-08T11:20:13.715Z,27.4
2018-12-08T11:21:04.390Z,27.4
2018-12-08T11:21:53.893Z,27.4
2018-12-08T11:22:44.471Z,27.4
2018-12-08T11:23:34.264Z,27.3
2018-12-08T11:24:24.107Z,27.3
2018-12-08T11:25:13.865Z,27.3
2018-12-08T11:26:04.962Z,27.3
2018-12-08T11:26:55.309Z,27.3
2018-12-08T11:27:44.224Z,27.3
2018-12-08T11:28:35.381Z,27.2
2018-12-08T11:29:24.984Z,27.2
2018-12-08T11:30:15.231Z,27.2
2018-12-08T11:31:04.233Z,27.2
2018-12-08T11:31:55.409Z,27.1
2018-12-08T11:32:45.120Z,27.1
2018-12-08T11:33:35.519Z,27.1
2018-12-08T11:34:25.490Z,27.1
2018-12-08T11:35:14.998Z,27.1
2018-12-08T11:36:04.976Z,27.1
2018-12-08T11:36:56.218Z,27.1
2018-12-08T11:37:46.014Z,27.1
2018-12-08T11:38:35.896Z,27.1
2018-12-08T11:39:26.171Z,27.1
2018-12-08T11:40:15.963Z,27.1
2018-12-08T11:41:04.948Z,27
2018-12-08T11:41:55.348Z,27
2018-12-08T11:42:45.636Z,27
2018-12-08T11:43:35.918Z,26.9
2018-12-08T11:44:25.903Z,27
2018-12-08T11:45:16.058Z,26.9
2018-12-08T11:46:05.545Z,26.9
2018-12-08T11:46:56.108Z,26.9
2018-12-08T11:47:45.668Z,26.9
2018-12-08T11:48:34.901Z,26.9
2018-12-08T11:49:25.847Z,26.9
2018-12-08T11:50:15.896Z,26.9
2018-12-08T11:51:05.912Z,26.9
2018-12-08T11:51:56.025Z,26.9
2018-12-08T11:52:46.090Z,26.9
2018-12-08T11:53:35.547Z,26.9
2018-12-08T11:54:25.992Z,26.9
2018-12-08T11:55:16.950Z,26.9
2018-12-08T11:56:06.019Z,26.9
2018-12-08T11:56:56.367Z,26.9
2018-12-08T11:57:47.228Z,26.9
2018-12-08T11:58:36.902Z,26.8
2018-12-08T11:59:27.556Z,26.8
2018-12-08T12:00:17.029Z,26.8
2018-12-08T12:01:07.635Z,26.8
2018-12-08T12:01:57.130Z,26.8